createdAt,value
2018-06-23T00:00:17.582Z,12.10
2018-06-23T00:02:46.409Z,12.10
2018-06-23T00:05:15.353Z,12.20
2018-06-23T00:07:44.129Z,12.10
2018-06-23T00:15:38.320Z,12.10
2018-06-23T00:18:07.101Z,12.20
2018-06-23T00:20:35.892Z,12.20
2018-06-23T00:23:04.689Z,12.10
2018-06-23T00:25:39.013Z,12.10
2018-06-23T00:28:07.800Z,12.20
2018-06-23T00:30:36.624Z,12.10
2018-06-23T00:33:05.381Z,12.10
2018-06-23T00:35:34.161Z,12.10
2018-06-23T00:38:02.944Z,12.10
2018-06-23T00:40:31.753Z,12.00
2018-06-23T00:43:00.522Z,12.00
2018-06-23T00:45:29.309Z,12.00
2018-06-23T00:47:58.105Z,12.00
2018-06-23T00:50:27.172Z,12.00
2018-06-23T00:52:55.925Z,11.90
2018-06-23T00:55:24.703Z,12.00
2018-06-23T01:00:22.085Z,12.00
2018-06-23T01:02:50.857Z,11.90
2018-06-23T01:07:48.114Z,12.00
2018-06-23T01:10:16.889Z,12.10
2018-06-23T01:12:45.677Z,12.10
2018-06-23T01:15:14.489Z,12.10
2018-06-23T01:20:11.814Z,12.20
2018-06-23T01:22:40.596Z,12.20
2018-06-23T01:25:09.381Z,12.20
2018-06-23T01:27:38.133Z,12.20
2018-06-23T01:30:07.248Z,12.30
2018-06-23T01:32:36.041Z,12.30
2018-06-23T01:35:04.889Z,12.30
2018-06-23T01:37:33.661Z,12.40
2018-06-23T01:40:02.446Z,12.40
2018-06-23T01:42:31.236Z,12.40
2018-06-23T01:45:00.033Z,12.40
2018-06-23T01:47:28.861Z,12.50
2018-06-23T01:49:57.671Z,12.50
2018-06-23T01:52:26.454Z,12.50
2018-06-23T01:54:55.255Z,12.50
2018-06-23T01:57:24.014Z,12.60
2018-06-23T01:59:52.802Z,12.60
2018-06-23T02:02:21.716Z,12.70
2018-06-23T02:04:50.476Z,12.70
2018-06-23T02:07:19.269Z,12.80
2018-06-23T02:09:48.313Z,12.80
2018-06-23T02:12:17.098Z,12.80
2018-06-23T02:14:51.397Z,12.80
2018-06-23T02:18:27.538Z,12.80
2018-06-23T02:21:01.584Z,12.80
2018-06-23T02:23:36.049Z,12.90
2018-06-23T02:26:10.181Z,12.90
2018-06-23T02:31:18.550Z,12.90
2018-06-23T02:33:52.720Z,12.90
2018-06-23T02:38:50.005Z,13.00
2018-06-23T02:41:18.833Z,12.90
2018-06-23T02:43:47.604Z,12.90
2018-06-23T02:46:16.377Z,12.90
2018-06-23T02:48:45.139Z,12.90
2018-06-23T02:53:42.505Z,13.00
2018-06-23T02:56:11.294Z,12.90
2018-06-23T02:58:40.062Z,12.90
2018-06-23T03:01:08.851Z,12.90
2018-06-23T03:03:37.637Z,12.90
2018-06-23T03:06:06.454Z,13.00
2018-06-23T03:08:35.213Z,13.00
2018-06-23T03:11:04.285Z,13.00
2018-06-23T03:13:33.277Z,13.00
2018-06-23T03:16:02.061Z,13.10
2018-06-23T03:18:30.821Z,13.10
2018-06-23T03:23:28.077Z,13.20
2018-06-23T03:33:22.334Z,13.30
2018-06-23T03:35:51.257Z,13.20
2018-06-23T03:38:20.457Z,13.20
2018-06-23T03:40:49.230Z,13.20
2018-06-23T03:43:18.013Z,13.20
2018-06-23T03:45:47.485Z,13.20
2018-06-23T03:50:44.877Z,13.30
2018-06-23T03:53:14.097Z,13.40
2018-06-23T03:55:42.861Z,13.30
2018-06-23T03:58:11.628Z,13.30
2018-06-23T04:05:44.653Z,13.30
2018-06-23T04:08:13.666Z,13.30
2018-06-23T04:10:42.657Z,13.30
2018-06-23T04:15:39.918Z,13.40
2018-06-23T04:18:08.704Z,13.40
2018-06-23T04:23:05.977Z,13.40
2018-06-23T04:25:34.749Z,13.50
2018-06-23T04:28:03.527Z,13.50
2018-06-23T04:30:32.418Z,13.50
2018-06-23T04:33:01.221Z,13.60
2018-06-23T04:35:29.995Z,13.60
2018-06-23T04:37:58.769Z,13.70
2018-06-23T04:40:27.549Z,13.80
2018-06-23T04:42:56.347Z,13.80
2018-06-23T04:45:25.106Z,13.80
2018-06-23T04:47:54.078Z,13.80
2018-06-23T04:50:22.829Z,13.90
2018-06-23T04:52:51.626Z,13.90
2018-06-23T04:55:20.385Z,14.00
2018-06-23T04:57:49.166Z,13.90
2018-06-23T05:00:19.436Z,13.90
2018-06-23T05:05:16.797Z,14.00
2018-06-23T05:07:45.760Z,13.90
2018-06-23T05:10:14.533Z,14.00
2018-06-23T05:15:11.862Z,14.00
2018-06-23T05:17:40.624Z,14.00
2018-06-23T05:20:09.452Z,14.10
2018-06-23T05:22:38.641Z,14.20
2018-06-23T05:27:35.893Z,14.20
2018-06-23T05:30:05.249Z,14.10
2018-06-23T05:32:34.026Z,14.10
2018-06-23T05:35:02.775Z,14.20
2018-06-23T05:40:00.697Z,14.20
2018-06-23T05:42:29.445Z,14.30
2018-06-23T05:44:58.236Z,14.50
2018-06-23T05:47:26.993Z,14.60
2018-06-23T05:49:55.765Z,14.40
2018-06-23T05:52:24.529Z,14.50
2018-06-23T05:54:53.296Z,14.40
2018-06-23T06:02:19.237Z,14.60
2018-06-23T06:04:48.049Z,14.60
2018-06-23T06:07:16.837Z,14.40
2018-06-23T06:12:14.082Z,14.50
2018-06-23T06:14:42.873Z,14.50
2018-06-23T06:17:26.633Z,14.50
2018-06-23T06:19:56.471Z,14.60
2018-06-23T06:22:27.303Z,14.70
2018-06-23T06:24:56.249Z,14.70
2018-06-23T06:27:25.177Z,14.90
2018-06-23T06:29:54.686Z,14.90
2018-06-23T06:32:23.905Z,15.00
2018-06-23T06:34:52.693Z,15.10
2018-06-23T06:37:21.481Z,15.20
2018-06-23T06:39:50.247Z,15.20
2018-06-23T06:42:19.020Z,15.20
2018-06-23T06:44:47.810Z,15.10
2018-06-23T06:47:17.657Z,15.00
2018-06-23T06:49:46.481Z,14.80
2018-06-23T06:52:15.258Z,14.70
2018-06-23T06:54:44.257Z,14.70
2018-06-23T06:57:13.112Z,14.60
2018-06-23T06:59:41.849Z,14.80
2018-06-23T07:02:10.621Z,14.80
2018-06-23T07:04:39.821Z,14.80
2018-06-23T07:07:08.618Z,14.90
2018-06-23T07:09:37.442Z,14.70
2018-06-23T07:12:06.432Z,14.70
2018-06-23T07:14:35.221Z,14.70
2018-06-23T07:17:04.002Z,14.70
2018-06-23T07:19:32.813Z,14.80
2018-06-23T07:22:01.571Z,15.10
2018-06-23T07:24:30.349Z,15.30
2018-06-23T07:26:59.189Z,15.40
2018-06-23T07:29:27.929Z,15.40
2018-06-23T07:31:56.697Z,15.20
2018-06-23T07:34:25.515Z,15.00
2018-06-23T07:36:54.216Z,14.90
2018-06-23T07:39:22.986Z,14.80
2018-06-23T07:41:51.749Z,14.90
2018-06-23T07:44:20.533Z,15.00
2018-06-23T07:46:49.566Z,15.10
2018-06-23T07:49:18.325Z,15.20
2018-06-23T07:51:47.108Z,15.30
2018-06-23T07:54:15.901Z,15.40
2018-06-23T07:56:44.664Z,15.70
2018-06-23T07:59:13.433Z,15.70
2018-06-23T08:01:42.262Z,15.70
2018-06-23T08:04:10.978Z,15.70
2018-06-23T08:06:39.761Z,15.80
2018-06-23T08:09:09.215Z,15.90
2018-06-23T08:11:38.069Z,16.00
2018-06-23T08:14:06.797Z,16.10
2018-06-23T08:16:35.718Z,16.10
2018-06-23T08:19:04.539Z,16.40
2018-06-23T08:21:33.305Z,16.50
2018-06-23T08:24:02.085Z,16.50
2018-06-23T08:26:31.068Z,16.40
2018-06-23T08:28:59.785Z,16.20
2018-06-23T08:31:28.957Z,16.00
2018-06-23T08:33:57.789Z,16.10
2018-06-23T08:36:26.618Z,16.20
2018-06-23T08:38:55.365Z,16.10
2018-06-23T08:41:24.188Z,16.20
2018-06-23T08:43:53.034Z,16.40
2018-06-23T08:46:21.834Z,16.30
2018-06-23T08:48:50.697Z,16.10
2018-06-23T08:51:19.802Z,16.20
2018-06-23T08:53:48.581Z,16.20
2018-06-23T08:56:17.381Z,16.10
2018-06-23T08:58:46.141Z,16.10
2018-06-23T09:01:14.958Z,16.20
2018-06-23T09:03:43.813Z,15.90
2018-06-23T09:06:12.613Z,15.80
2018-06-23T09:08:41.389Z,15.60
2018-06-23T09:11:10.221Z,15.50
2018-06-23T09:13:39.052Z,15.40
2018-06-23T09:16:07.770Z,15.40
2018-06-23T09:18:36.585Z,15.40
2018-06-23T09:23:34.066Z,15.50
2018-06-23T09:26:02.858Z,15.60
2018-06-23T09:28:31.662Z,16.00
2018-06-23T09:31:00.477Z,16.20
2018-06-23T09:33:29.226Z,16.10
2018-06-23T09:40:55.181Z,15.90
2018-06-23T09:48:21.205Z,16.60
2018-06-23T09:50:50.021Z,16.80
2018-06-23T09:53:18.901Z,17.10
2018-06-23T09:55:47.753Z,17.00
2018-06-23T10:00:44.966Z,16.80
2018-06-23T10:03:13.766Z,16.40
2018-06-23T10:05:42.547Z,16.40
2018-06-23T10:08:11.326Z,16.30
2018-06-23T10:10:40.129Z,16.50
2018-06-23T10:18:06.039Z,16.90
2018-06-23T10:20:34.809Z,16.70
2018-06-23T10:23:03.582Z,16.60
2018-06-23T10:25:32.354Z,16.60
2018-06-23T10:28:01.330Z,16.90
2018-06-23T10:30:30.118Z,17.00
2018-06-23T10:32:58.899Z,17.00
2018-06-23T10:35:27.668Z,17.00
2018-06-23T10:37:56.473Z,17.20
2018-06-23T10:40:25.257Z,17.40
2018-06-23T10:42:54.076Z,17.60
2018-06-23T10:47:51.338Z,17.90
2018-06-23T10:50:20.091Z,18.10
2018-06-23T10:52:48.912Z,18.10
2018-06-23T10:55:17.709Z,18.20
2018-06-23T11:00:15.082Z,17.70
2018-06-23T11:05:12.358Z,17.30
2018-06-23T11:07:41.136Z,17.00
2018-06-23T11:12:38.533Z,16.90
2018-06-23T11:15:07.341Z,16.90
2018-06-23T11:17:36.129Z,16.70
2018-06-23T11:20:05.153Z,17.00
2018-06-23T11:22:33.964Z,17.20
2018-06-23T11:25:02.792Z,17.70
2018-06-23T11:27:31.580Z,17.70
2018-06-23T11:30:00.353Z,17.70
2018-06-23T11:32:29.381Z,17.80
2018-06-23T11:34:58.267Z,18.00
2018-06-23T11:37:27.053Z,17.60
2018-06-23T11:39:55.982Z,17.60
2018-06-23T11:42:24.830Z,17.40
2018-06-23T11:44:53.809Z,17.00
2018-06-23T11:47:22.585Z,17.50
2018-06-23T11:49:52.009Z,17.50
2018-06-23T11:52:20.847Z,17.70
2018-06-23T11:54:49.601Z,17.70
2018-06-23T11:57:19.312Z,17.60
2018-06-23T11:59:48.614Z,17.40
2018-06-23T12:02:18.825Z,17.60
2018-06-23T12:04:48.193Z,17.50
2018-06-23T12:09:45.506Z,17.30
2018-06-23T12:12:14.285Z,17.60
2018-06-23T12:14:43.128Z,17.30
2018-06-23T12:17:11.929Z,17.00
2018-06-23T12:22:09.309Z,17.30
2018-06-23T12:24:38.182Z,17.30
2018-06-23T12:27:07.649Z,17.30
2018-06-23T12:29:36.429Z,17.20
2018-06-23T12:32:05.193Z,16.90
2018-06-23T12:34:34.177Z,17.20
2018-06-23T12:37:02.942Z,17.50
2018-06-23T12:39:31.705Z,17.30
2018-06-23T12:42:00.608Z,17.30
2018-06-23T12:44:29.537Z,17.40
2018-06-23T12:46:58.622Z,17.00
2018-06-23T12:49:27.374Z,17.00
2018-06-23T12:51:56.307Z,16.90
2018-06-23T12:54:25.397Z,16.90
2018-06-23T12:56:54.361Z,17.00
2018-06-23T12:59:23.361Z,17.20
2018-06-23T13:01:52.109Z,17.50
2018-06-23T13:04:21.024Z,17.80
2018-06-23T13:06:49.808Z,17.80
2018-06-23T13:09:18.569Z,18.00
2018-06-23T13:11:47.317Z,17.80
2018-06-23T13:14:16.090Z,17.80
2018-06-23T13:16:44.838Z,17.60
2018-06-23T13:19:14.273Z,17.50
2018-06-23T13:21:43.041Z,17.50
2018-06-23T13:24:11.801Z,17.30
2018-06-23T13:26:40.561Z,17.30
2018-06-23T13:29:09.385Z,16.90
2018-06-23T13:31:38.136Z,16.80
2018-06-23T13:34:06.982Z,16.80
2018-06-23T13:36:35.722Z,17.00
2018-06-23T13:39:07.173Z,17.40
2018-06-23T13:41:36.068Z,17.60
2018-06-23T13:44:04.818Z,17.70
2018-06-23T13:46:33.792Z,17.80
2018-06-23T13:49:02.676Z,17.70
2018-06-23T13:51:31.466Z,17.40
2018-06-23T13:54:00.360Z,17.10
2018-06-23T13:56:29.112Z,17.10
2018-06-23T13:58:57.887Z,16.90
2018-06-23T14:01:26.630Z,17.40
2018-06-23T14:03:55.788Z,17.30
2018-06-23T14:06:24.550Z,17.20
2018-06-23T14:08:53.383Z,17.20
2018-06-23T14:11:22.693Z,16.80
2018-06-23T14:13:51.465Z,16.40
2018-06-23T14:16:20.213Z,16.30
2018-06-23T14:18:48.980Z,16.40
2018-06-23T14:21:17.733Z,16.30
2018-06-23T14:23:46.495Z,15.80
2018-06-23T14:26:15.253Z,16.10
2018-06-23T14:28:44.013Z,16.30
2018-06-23T14:31:12.761Z,16.00
2018-06-23T14:33:41.556Z,16.30
2018-06-23T14:36:10.302Z,16.30
2018-06-23T14:38:39.080Z,16.30
2018-06-23T14:41:07.841Z,16.50
2018-06-23T14:43:36.680Z,16.50
2018-06-23T14:46:05.457Z,16.40
2018-06-23T14:48:34.420Z,16.50
2018-06-23T14:51:03.190Z,16.10
2018-06-23T14:53:31.985Z,16.20
2018-06-23T14:56:00.729Z,16.50
2018-06-23T14:58:29.513Z,16.50
2018-06-23T15:00:58.289Z,16.60
2018-06-23T15:03:27.069Z,16.50
2018-06-23T15:05:55.894Z,16.40
2018-06-23T15:08:35.998Z,16.00
2018-06-23T15:11:16.105Z,15.90
2018-06-23T15:13:44.841Z,15.90
2018-06-23T15:16:13.604Z,15.90
2018-06-23T15:18:42.441Z,16.10
2018-06-23T15:21:11.232Z,16.10
2018-06-23T15:23:39.994Z,16.20
2018-06-23T15:26:08.828Z,16.30
2018-06-23T15:28:37.650Z,16.10
2018-06-23T15:31:06.412Z,16.30
2018-06-23T15:33:35.247Z,16.40
2018-06-23T15:36:03.972Z,16.50
2018-06-23T15:38:32.982Z,16.50
2018-06-23T15:41:01.733Z,16.40
2018-06-23T15:43:30.506Z,16.30
2018-06-23T15:45:59.257Z,16.10
2018-06-23T15:48:28.010Z,16.20
2018-06-23T15:50:56.853Z,16.00
2018-06-23T15:53:25.613Z,15.90
2018-06-23T15:55:54.425Z,15.90
2018-06-23T15:58:23.365Z,15.80
2018-06-23T16:00:52.133Z,15.90
2018-06-23T16:03:20.880Z,16.10
2018-06-23T16:05:49.661Z,16.10
2018-06-23T16:08:18.466Z,16.10
2018-06-23T16:10:47.293Z,16.30
2018-06-23T16:13:16.037Z,16.20
2018-06-23T16:15:44.802Z,16.20
2018-06-23T16:18:13.549Z,16.00
2018-06-23T16:20:42.301Z,16.00
2018-06-23T16:23:11.055Z,15.90
2018-06-23T16:25:39.813Z,15.70
2018-06-23T16:28:08.576Z,15.50
2018-06-23T16:30:37.344Z,15.50
2018-06-23T16:33:06.134Z,15.40
2018-06-23T16:35:34.897Z,15.60
2018-06-23T16:38:03.757Z,15.30
2018-06-23T16:40:32.793Z,15.40
2018-06-23T16:43:01.625Z,15.40
2018-06-23T16:45:30.394Z,15.50
2018-06-23T16:47:59.145Z,15.40
2018-06-23T16:50:27.917Z,15.40
2018-06-23T16:52:56.663Z,15.50
2018-06-23T16:55:25.441Z,15.60
2018-06-23T16:57:54.213Z,15.60
2018-06-23T17:00:22.973Z,15.50
2018-06-23T17:02:51.765Z,15.50
2018-06-23T17:05:20.570Z,15.20
2018-06-23T17:07:49.329Z,15.00
2018-06-23T17:10:18.090Z,15.00
2018-06-23T17:12:46.977Z,14.90
2018-06-23T17:15:15.819Z,15.10
2018-06-23T17:17:44.508Z,15.10
2018-06-23T17:20:13.394Z,15.10
2018-06-23T17:22:42.174Z,15.00
2018-06-23T17:25:10.909Z,14.90
2018-06-23T17:27:39.713Z,14.90
2018-06-23T17:30:08.492Z,14.90
2018-06-23T17:32:37.253Z,15.00
2018-06-23T17:35:06.037Z,15.00
2018-06-23T17:37:34.823Z,14.90
2018-06-23T17:40:03.615Z,14.90
2018-06-23T17:42:32.381Z,14.90
2018-06-23T17:45:01.129Z,14.90
2018-06-23T17:47:29.912Z,14.80
2018-06-23T17:49:58.674Z,14.80
2018-06-23T17:52:27.498Z,14.70
2018-06-23T17:54:56.233Z,14.70
2018-06-23T17:57:25.100Z,14.60
2018-06-23T17:59:53.752Z,14.70
2018-06-23T18:02:22.525Z,14.60
2018-06-23T18:04:51.281Z,14.60
2018-06-23T18:07:20.025Z,14.80
2018-06-23T18:09:49.332Z,14.80
2018-06-23T18:12:18.169Z,14.80
2018-06-23T18:14:46.849Z,14.70
2018-06-23T18:17:15.620Z,14.70
2018-06-23T18:19:44.368Z,14.60
2018-06-23T18:22:13.145Z,14.60
2018-06-23T18:24:42.017Z,14.60
2018-06-23T18:27:10.970Z,14.70
2018-06-23T18:29:39.725Z,14.70
2018-06-23T18:32:08.532Z,14.60
2018-06-23T18:34:37.288Z,14.60
2018-06-23T18:37:06.081Z,14.60
2018-06-23T18:39:34.840Z,14.60
2018-06-23T18:42:03.605Z,14.60
2018-06-23T18:44:32.499Z,14.50
2018-06-23T18:47:01.258Z,14.50
2018-06-23T18:49:30.153Z,14.40
2018-06-23T18:51:58.945Z,14.50
2018-06-23T18:54:27.697Z,14.50
2018-06-23T18:56:56.638Z,14.40
2018-06-23T18:59:25.402Z,14.30
2018-06-23T19:01:54.192Z,14.40
2018-06-23T19:04:22.945Z,14.30
2018-06-23T19:06:51.744Z,14.40
2018-06-23T19:09:20.554Z,14.30
2018-06-23T19:11:49.274Z,14.40
2018-06-23T19:14:19.842Z,14.30
2018-06-23T19:16:48.613Z,14.30
2018-06-23T19:19:17.512Z,14.20
2018-06-23T19:21:46.280Z,14.30
2018-06-23T19:24:15.019Z,14.20
2018-06-23T19:26:43.805Z,14.20
2018-06-23T19:29:12.557Z,14.30
2018-06-23T19:31:41.325Z,14.20
2018-06-23T19:34:10.089Z,14.10
2018-06-23T19:36:38.837Z,14.00
2018-06-23T19:39:09.089Z,14.00
2018-06-23T19:41:37.849Z,14.00
2018-06-23T19:44:06.664Z,14.10
2018-06-23T19:46:35.413Z,14.00
2018-06-23T19:49:04.202Z,14.00
2018-06-23T19:51:32.970Z,14.00
2018-06-23T19:54:01.723Z,14.00
2018-06-23T19:56:30.478Z,14.00
2018-06-23T19:58:59.288Z,14.00
2018-06-23T20:01:28.058Z,14.00
2018-06-23T20:03:56.834Z,13.90
2018-06-23T20:06:25.640Z,14.00
2018-06-23T20:08:54.405Z,13.90
2018-06-23T20:11:23.344Z,13.90
2018-06-23T20:13:52.133Z,13.90
2018-06-23T20:16:20.892Z,14.00
2018-06-23T20:18:49.652Z,14.00
2018-06-23T20:21:18.493Z,13.90
2018-06-23T20:23:47.265Z,13.80
2018-06-23T20:26:16.025Z,13.70
2018-06-23T20:28:44.812Z,13.80
2018-06-23T20:31:13.585Z,13.80
2018-06-23T20:33:42.352Z,13.80
2018-06-23T20:36:11.201Z,13.80
2018-06-23T20:38:39.981Z,13.80
2018-06-23T20:41:08.764Z,13.80
2018-06-23T20:43:37.553Z,13.80
2018-06-23T20:46:06.436Z,13.80
2018-06-23T20:48:35.245Z,13.70
2018-06-23T20:51:04.097Z,13.80
2018-06-23T20:53:32.862Z,13.60
2018-06-23T20:56:01.677Z,13.60
2018-06-23T20:58:30.481Z,13.60
2018-06-23T21:00:59.429Z,13.60
2018-06-23T21:03:28.325Z,13.60
2018-06-23T21:05:57.097Z,13.50
2018-06-23T21:08:25.930Z,13.60
2018-06-23T21:10:54.787Z,13.50
2018-06-23T21:13:23.545Z,13.50
2018-06-23T21:15:52.315Z,13.60
2018-06-23T21:18:21.093Z,13.60
2018-06-23T21:20:49.853Z,13.50
2018-06-23T21:23:18.605Z,13.40
2018-06-23T21:25:47.401Z,13.50
2018-06-23T21:28:16.173Z,13.60
2018-06-23T21:30:45.038Z,13.60
2018-06-23T21:33:13.746Z,13.60
2018-06-23T21:35:43.393Z,13.50
2018-06-23T21:38:18.721Z,13.40
2018-06-23T21:40:47.746Z,13.40
2018-06-23T21:43:16.560Z,13.40
2018-06-23T21:45:45.284Z,13.30
2018-06-23T21:48:14.037Z,13.40
2018-06-23T21:50:42.812Z,13.40
2018-06-23T21:53:11.611Z,13.40
2018-06-23T21:55:40.356Z,13.40
2018-06-23T21:58:09.204Z,13.40
2018-06-23T22:00:41.481Z,13.40
2018-06-23T22:03:11.409Z,13.40
2018-06-23T22:05:40.333Z,13.40
2018-06-23T22:08:09.445Z,13.40
2018-06-23T22:10:38.265Z,13.40
2018-06-23T22:13:07.052Z,13.40
2018-06-23T22:15:36.000Z,13.40
2018-06-23T22:18:04.790Z,13.30
2018-06-23T22:20:33.575Z,13.30
2018-06-23T22:23:02.344Z,13.40
2018-06-23T22:27:59.757Z,13.40
2018-06-23T22:30:28.561Z,13.40
2018-06-23T22:32:57.436Z,13.30
2018-06-23T22:35:26.217Z,13.30
2018-06-23T22:37:54.973Z,13.30
2018-06-23T22:42:52.521Z,13.30
2018-06-23T22:45:21.436Z,13.30
2018-06-23T22:50:18.676Z,13.40
2018-06-23T22:52:47.449Z,13.40
2018-06-23T22:55:16.212Z,13.30
2018-06-23T22:57:44.974Z,13.30
2018-06-23T23:00:14.601Z,13.40
2018-06-23T23:02:43.990Z,13.30
2018-06-23T23:07:41.661Z,13.30
2018-06-23T23:10:11.132Z,13.30
2018-06-23T23:12:40.264Z,13.40
2018-06-23T23:17:37.740Z,13.30
2018-06-23T23:22:35.131Z,13.20
2018-06-23T23:27:32.416Z,13.30
2018-06-23T23:30:01.182Z,13.30
2018-06-23T23:32:29.953Z,13.40
2018-06-23T23:34:58.729Z,13.40
2018-06-23T23:37:27.504Z,13.30
2018-06-23T23:39:56.257Z,13.30
2018-06-23T23:42:25.022Z,13.20
2018-06-23T23:44:53.780Z,13.20
2018-06-23T23:47:22.557Z,13.30
2018-06-23T23:49:51.316Z,13.20
2018-06-23T23:52:20.314Z,13.20
2018-06-23T23:54:49.090Z,13.30
2018-06-23T23:57:17.865Z,13.30
2018-06-23T23:59:46.678Z,13.30
